Startpagina
METAR-TAF:

METAR-TAF

Vliegvelden :

Zeltweg, Oostenrijk

Zeltweg Luchthaven Circuit

breedte: 47-12N, lengte: 014-45E, hoogte: 677 m

Actueel weer

Dit bericht is 45 minuten geleden gemaakt, om 23:50 UTC
Wind 7 kt uit het noordoosten
Temperatuur -2°C
Vochtigheid 80%
Druk 1013 hPa
lichte sneeuw

METAR: LOXZ 212350Z 05007KT 10KM -SN SCT025SC BKN036SC M02/M05 Q1013

Tijdstip: 01:35 (00:35 UTC)

Verwachting

Dit bericht is 10 uur en het 20 minuten geleden gemaakt, om 14:15 UTC
Verwachting geldig van 21 om 15 UTC tot 21 om 24 UTC
Wind 3 kt uit variabele richting
Zicht 10 km of meer
Weinig wolken op 1500 ft
Verspreide wolken op 3000 ft
Gebroken wolken op 4500 ft
Tijdelijke
van 21 om 17 UTC tot 21 om 24 UTC
Zicht: 4000 m
Verspreide wolken op 1500 ft
Gebroken wolken op 3000 ft
lichte sneeuw, nevel
Kans 30% :
Tijdelijke
van 21 om 21 UTC tot 21 om 24 UTC
Zicht: 1500 m
op 800 ft
sneeuw

TAF: LOXZ 211415Z 2115/2124 VRB03KT 9999 FEW015 SCT030 BKN045 TEMPO 2117/2124 4000 -SN BR SCT015 BKN030 PROB30 TEMPO 2121/2124 1500 SN VV008

Waarnemingen en weersverwachtingen van meer dan 4000 vliegvelden (METAR en TAF).

De beschikbare stations zijn de gele en rode punten op de kaart.

Ga met uw muis naar het station om de naam te zien.

Klik dan om waarnemingen en weersverwachtingen te zien.

kaart wijzigen: klik op de groene knoppen met een zwart kruis om in te zoomen, op de groene knop met een streepje om uit te zoomen of op de groene pijlen voor aangrenzende kaarten.


METAR-TAF: